Terminal Aerodrome Forecast
Issued by NWS

Home | Current Version | Previous Version | Text Only | Print | Product List | Glossary Off
Versions: 1 2 3 4 5 6 7 8 9 10 11 12 13 14 15 16 17 18 19

241
FTUS43 KGRB 291731
TAFCWA
TAF
KCWA 291731Z 2918/3018 05007KT P6SM BKN035
     FM292100 09005KT P6SM SCT050
     FM300200 08005KT P6SM SCT250
     FM301500 07010G16KT P6SM SCT040=

USA.gov is the U.S. government's official web portal to all federal, state and local government web resources and services.